»·PEaware :: N195WA KBIS-KLBF

N195WA :: KBIS-KLBF

FLIGHT INFORMATION

Flight Status: Arrived
Operator: Privately registered:
United States
More flights under this callsign
Pilot: Steve K. (2395)
Aircraft: DEHAVILLAND DH-6 TWIN OTTER
(DHC6)
More flights by this aircraft type
Origin: KBIS Bismarck Mun
United States
Destination: KLBF North Platte Regl-Bird
United States
More flights between these airports :: More routes between these airports
Route: PIR T281 LKOTA T285 MARSS T285 TDD
File this flight plan on PilotEdge
Remarks:
Altitude:
(Current/Filed)
12,500ft
Speed:
(Current/Filed)
150kts
Departed: 13-Jan-17 07:17 AM
Arrived: 13-Jan-17 10:06 AM
Distance/Time
Traveled:
338nm/2:49
Distance/Time
To Go:
Arrived

Flight Plot

Page will automatically refresh every two minutes.

Flight plan parsing failed; only flown route is shown


Map Options




Map Legend


Flown Route
Filed Route
Departure Airport
Arrival Airport
Navaid (VOR, NDB)
Fix

Horizontal Profiles

Position Reports

Time Latitude Longitude Heading Altitude Ground
Speed
13-Jan-17 07:16 46.638838 -100.710924 173 7558ft 125kts
13-Jan-17 07:17 46.614389 -100.705329 174 8528ft 129kts
13-Jan-17 07:18 46.592588 -100.694419 156 9328ft 132kts
13-Jan-17 07:19 46.574514 -100.673392 150 10153ft 122kts
13-Jan-17 07:20 46.556509 -100.652250 151 11060ft 108kts
13-Jan-17 07:21 46.539849 -100.632604 155 11943ft 94kts
13-Jan-17 07:22 46.517604 -100.616108 168 12012ft 147kts
13-Jan-17 07:23 46.486575 -100.603839 174 12004ft 171kts
13-Jan-17 07:24 46.450248 -100.594138 177 12000ft 180kts
13-Jan-17 07:25 46.410695 -100.585083 177 12001ft 184kts
13-Jan-17 07:26 46.373089 -100.576828 177 12000ft 185kts
13-Jan-17 07:27 46.332235 -100.567958 177 12000ft 185kts
13-Jan-17 07:28 46.294022 -100.559692 177 12000ft 185kts
13-Jan-17 07:29 46.252725 -100.550777 177 12000ft 185kts
13-Jan-17 07:30 46.212097 -100.542020 177 11996ft 186kts
13-Jan-17 07:31 46.176774 -100.534417 177 11990ft 186kts
13-Jan-17 07:32 46.141270 -100.526785 177 11984ft 186kts
13-Jan-17 07:33 46.106922 -100.519410 177 11978ft 186kts
13-Jan-17 07:34 46.074373 -100.512431 177 11973ft 186kts
13-Jan-17 07:35 46.041722 -100.505437 177 11972ft 185kts
13-Jan-17 07:36 46.008203 -100.498268 177 11972ft 185kts
13-Jan-17 07:37 45.974314 -100.491028 177 11972ft 185kts
13-Jan-17 07:38 45.941069 -100.483934 177 11972ft 185kts
13-Jan-17 07:39 45.907955 -100.476877 177 11972ft 185kts
13-Jan-17 07:40 45.875866 -100.470046 177 11972ft 185kts
13-Jan-17 07:41 45.843524 -100.463170 177 11972ft 185kts
13-Jan-17 07:42 45.810672 -100.456193 177 11972ft 185kts
13-Jan-17 07:43 45.777692 -100.449198 177 11972ft 185kts
13-Jan-17 07:44 45.744969 -100.442266 177 11972ft 185kts
13-Jan-17 07:45 45.712000 -100.435289 177 11972ft 185kts
13-Jan-17 07:46 45.678150 -100.428134 177 11972ft 185kts
13-Jan-17 07:47 45.644823 -100.421100 177 11972ft 185kts
13-Jan-17 07:48 45.611627 -100.414100 177 11972ft 185kts
13-Jan-17 07:49 45.579213 -100.407274 177 11972ft 185kts
13-Jan-17 07:50 45.546429 -100.400378 177 11972ft 185kts
13-Jan-17 07:51 45.513666 -100.393495 177 11972ft 185kts
13-Jan-17 07:52 45.480400 -100.386514 177 11972ft 185kts
13-Jan-17 07:53 45.447337 -100.379584 177 11972ft 185kts
13-Jan-17 07:54 45.413933 -100.372591 177 11974ft 185kts
13-Jan-17 07:55 45.379400 -100.365370 177 11973ft 185kts
13-Jan-17 07:56 45.344373 -100.358055 177 11973ft 185kts
13-Jan-17 07:57 45.309716 -100.350826 177 11973ft 185kts
13-Jan-17 07:58 45.274235 -100.343444 177 11973ft 187kts
13-Jan-17 07:59 45.241066 -100.336538 177 11973ft 189kts
13-Jan-17 08:00 45.207854 -100.329633 177 11973ft 190kts
13-Jan-17 08:01 45.173921 -100.322588 177 11973ft 190kts
13-Jan-17 08:02 45.139710 -100.315494 177 11973ft 190kts
13-Jan-17 08:03 45.103011 -100.307891 177 11976ft 190kts
13-Jan-17 08:04 45.062038 -100.299412 177 11987ft 189kts
13-Jan-17 08:05 45.021028 -100.290944 178 11999ft 189kts
13-Jan-17 08:06 44.983278 -100.283159 178 12010ft 189kts
13-Jan-17 08:07 44.947909 -100.275879 178 12018ft 189kts
13-Jan-17 08:08 44.912782 -100.268662 178 12019ft 189kts
13-Jan-17 08:09 44.877500 -100.261416 178 12019ft 189kts
13-Jan-17 08:10 44.842614 -100.254259 178 12019ft 189kts
13-Jan-17 08:11 44.807866 -100.247139 178 12019ft 189kts
13-Jan-17 08:12 44.774011 -100.240210 178 12019ft 189kts
13-Jan-17 08:13 44.739879 -100.233233 178 12019ft 189kts
13-Jan-17 08:14 44.705346 -100.226182 178 12019ft 189kts
13-Jan-17 08:15 44.670288 -100.219032 178 12019ft 189kts
13-Jan-17 08:16 44.635759 -100.211999 178 12019ft 189kts
13-Jan-17 08:17 44.600967 -100.204922 178 12019ft 189kts
13-Jan-17 08:18 44.566040 -100.197825 178 12019ft 189kts
13-Jan-17 08:19 44.530846 -100.190682 178 12019ft 189kts
13-Jan-17 08:20 44.495910 -100.183600 178 12019ft 189kts
13-Jan-17 08:21 44.461626 -100.176660 178 12019ft 189kts
13-Jan-17 08:22 44.428013 -100.169863 178 12020ft 189kts
13-Jan-17 08:23 44.394352 -100.163262 182 12016ft 188kts
13-Jan-17 08:24 44.359664 -100.159743 182 12020ft 188kts
13-Jan-17 08:25 44.324581 -100.156285 182 12020ft 188kts
13-Jan-17 08:26 44.287664 -100.152680 182 12020ft 188kts
13-Jan-17 08:27 44.251270 -100.149138 182 12020ft 188kts
13-Jan-17 08:28 44.220636 -100.146161 182 12020ft 188kts
13-Jan-17 08:29 44.183718 -100.142577 182 12020ft 188kts
13-Jan-17 08:30 44.140124 -100.138352 182 12020ft 188kts
13-Jan-17 08:31 44.103076 -100.134767 182 12020ft 188kts
13-Jan-17 08:32 44.065767 -100.131161 182 12020ft 188kts
13-Jan-17 08:33 44.028196 -100.127534 182 12019ft 188kts
13-Jan-17 08:34 43.996386 -100.124466 182 12019ft 188kts
13-Jan-17 08:35 43.954234 -100.120406 182 12019ft 188kts
13-Jan-17 08:36 43.924387 -100.117535 182 12019ft 188kts
13-Jan-17 08:37 43.887080 -100.113951 182 12019ft 188kts
13-Jan-17 08:38 43.842093 -100.109634 182 12019ft 188kts
13-Jan-17 08:39 43.810415 -100.106599 182 12019ft 188kts
13-Jan-17 08:40 43.766976 -100.102404 182 12012ft 174kts
13-Jan-17 08:41 43.738909 -100.099649 184 12013ft 149kts
13-Jan-17 08:42 43.707968 -100.096688 185 12016ft 132kts
13-Jan-17 08:43 43.677602 -100.093806 185 12017ft 124kts
13-Jan-17 08:44 43.639136 -100.090110 187 12188ft 110kts
13-Jan-17 08:45 43.613788 -100.087769 187 12495ft 118kts
13-Jan-17 08:46 43.576148 -100.084309 185 12491ft 147kts
13-Jan-17 08:47 43.533761 -100.080244 184 12478ft 157kts
13-Jan-17 08:48 43.489694 -100.076039 184 12473ft 160kts
13-Jan-17 08:49 43.445288 -100.071825 184 12474ft 160kts
13-Jan-17 08:50 43.400828 -100.067619 184 12475ft 161kts
13-Jan-17 08:51 43.356256 -100.063411 184 12476ft 161kts
13-Jan-17 08:52 43.311478 -100.059189 184 12476ft 161kts
13-Jan-17 08:53 43.266820 -100.054990 184 12476ft 161kts
13-Jan-17 08:54 43.233728 -100.085839 226 12474ft 145kts
13-Jan-17 08:55 43.203674 -100.122722 227 12473ft 145kts
13-Jan-17 08:56 43.173832 -100.160054 227 12476ft 145kts
13-Jan-17 08:57 43.144188 -100.197255 227 12478ft 145kts
13-Jan-17 08:58 43.114494 -100.234498 227 12486ft 144kts
13-Jan-17 08:59 43.085090 -100.271341 227 12486ft 143kts
13-Jan-17 09:00 43.055755 -100.308049 227 12483ft 143kts
13-Jan-17 09:01 43.026361 -100.344778 227 12481ft 143kts
13-Jan-17 09:02 42.997034 -100.381376 227 12478ft 143kts
13-Jan-17 09:03 42.967485 -100.418200 227 12472ft 144kts
13-Jan-17 09:04 42.937918 -100.454996 227 12471ft 144kts
13-Jan-17 09:05 42.908256 -100.491859 227 12471ft 144kts
13-Jan-17 09:06 42.878520 -100.528766 227 12471ft 145kts
13-Jan-17 09:07 42.841954 -100.551385 195 12471ft 156kts
13-Jan-17 09:08 42.798790 -100.558156 194 12471ft 156kts
13-Jan-17 09:09 42.755468 -100.564272 193 12471ft 157kts
13-Jan-17 09:10 42.712169 -100.570252 193 12471ft 157kts
13-Jan-17 09:11 42.668822 -100.576207 193 12471ft 157kts
13-Jan-17 09:12 42.625380 -100.582162 193 12471ft 157kts
13-Jan-17 09:13 42.582041 -100.588095 193 12470ft 157kts
13-Jan-17 09:14 42.538665 -100.594023 193 12472ft 157kts
13-Jan-17 09:15 42.495489 -100.599916 193 12477ft 156kts
13-Jan-17 09:16 42.456708 -100.606048 197 12481ft 155kts
13-Jan-17 09:17 42.421996 -100.614267 197 12486ft 155kts
13-Jan-17 09:18 42.390464 -100.621782 198 12489ft 155kts
13-Jan-17 09:19 42.358770 -100.629370 198 12489ft 155kts
13-Jan-17 09:20 42.326733 -100.637028 198 12489ft 155kts
13-Jan-17 09:21 42.294972 -100.644610 198 12489ft 155kts
13-Jan-17 09:22 42.263424 -100.652135 198 12489ft 155kts
13-Jan-17 09:23 42.232018 -100.659617 198 12489ft 155kts
13-Jan-17 09:24 42.200508 -100.667117 198 12489ft 155kts
13-Jan-17 09:25 42.168859 -100.674642 198 12489ft 155kts
13-Jan-17 09:26 42.137319 -100.682134 198 12489ft 155kts
13-Jan-17 09:27 42.105392 -100.689709 198 12489ft 155kts
13-Jan-17 09:28 42.073325 -100.697310 198 12489ft 155kts
13-Jan-17 09:29 42.041404 -100.704870 198 12489ft 155kts
13-Jan-17 09:30 42.009557 -100.712403 198 12489ft 155kts
13-Jan-17 09:31 41.977878 -100.719990 198 12488ft 155kts
13-Jan-17 09:32 41.946473 -100.727905 198 12488ft 155kts
13-Jan-17 09:33 41.914934 -100.735867 198 12488ft 155kts
13-Jan-17 09:34 41.883589 -100.743776 198 12488ft 154kts
13-Jan-17 09:35 41.852620 -100.751571 198 12488ft 154kts
13-Jan-17 09:36 41.820420 -100.759678 198 12488ft 154kts
13-Jan-17 09:37 41.788338 -100.767750 198 12488ft 154kts
13-Jan-17 09:38 41.755368 -100.776039 198 12488ft 154kts
13-Jan-17 09:39 41.721447 -100.784557 198 12488ft 154kts
13-Jan-17 09:40 41.686964 -100.793208 198 12488ft 154kts
13-Jan-17 09:41 41.652909 -100.801742 198 12488ft 154kts
13-Jan-17 09:42 41.618707 -100.810304 198 12488ft 154kts
13-Jan-17 09:43 41.583641 -100.819102 198 12488ft 155kts
13-Jan-17 09:44 41.547968 -100.828049 198 12261ft 160kts
13-Jan-17 09:45 41.508671 -100.837862 196 11385ft 167kts
13-Jan-17 09:46 41.468277 -100.847924 195 10484ft 164kts
13-Jan-17 09:47 41.424892 -100.858729 194 9490ft 159kts
13-Jan-17 09:48 41.384661 -100.868732 193 8556ft 156kts
13-Jan-17 09:49 41.345516 -100.878451 192 7636ft 154kts
13-Jan-17 09:50 41.305494 -100.888373 191 6660ft 147kts
13-Jan-17 09:51 41.266215 -100.898098 190 5662ft 142kts
13-Jan-17 09:52 41.243698 -100.928258 298 4856ft 146kts
13-Jan-17 09:53 41.263682 -100.965399 300 4868ft 118kts
13-Jan-17 09:54 41.285005 -101.005350 301 4865ft 137kts
13-Jan-17 09:55 41.313314 -101.006262 85 4855ft 128kts
13-Jan-17 09:56 41.295262 -100.971269 136 4864ft 116kts
13-Jan-17 09:57 41.273594 -100.939552 136 4864ft 116kts
13-Jan-17 09:58 41.251842 -100.908011 137 4877ft 115kts
13-Jan-17 09:59 41.232423 -100.873776 130 4882ft 117kts
13-Jan-17 10:00 41.213352 -100.838744 130 4882ft 117kts
13-Jan-17 10:01 41.194308 -100.803839 130 4882ft 116kts
13-Jan-17 10:02 41.174510 -100.767573 129 4385ft 127kts
13-Jan-17 10:03 41.156539 -100.734637 130 3605ft 75kts
13-Jan-17 10:04 41.145434 -100.714278 126 3235ft 62kts
13-Jan-17 10:05 41.135501 -100.696282 129 2946ft 58kts
13-Jan-17 10:06 41.128608 -100.683843 160 2780ft 8kts
13-Jan-17 10:07 41.127530 -100.685261 304 2780ft 7kts
13-Jan-17 10:08 41.129081 -100.688136 308 2780ft 12kts
13-Jan-17 10:09 41.130826 -100.691329 305 2780ft 8kts
13-Jan-17 10:10 41.131186 -100.695987 296 2780ft 15kts
13-Jan-17 10:11 41.131742 -100.696404 267 2780ft 0kts
13-Jan-17 10:12 41.131742 -100.696404 267 2780ft 0kts
13-Jan-17 10:13 41.131742 -100.696404 267 2780ft 0kts
13-Jan-17 10:14 41.131742 -100.696404 267 2780ft 0kts
13-Jan-17 10:15 41.131742 -100.696404 267 2780ft 0kts
13-Jan-17 10:16 41.131742 -100.696404 267 2780ft 0kts
13-Jan-17 10:17 41.131742 -100.696404 267 2780ft 0kts
13-Jan-17 10:18 41.131742 -100.696404 267 2780ft 0kts
13-Jan-17 10:19 41.131742 -100.696404 267 2780ft 0kts
13-Jan-17 10:20 41.131742 -100.696404 267 2780ft 0kts

Navigation Log

Ident Type
Flight plan parsing failed, navigation log unavailable